| time (UTC) | temp F | wind direction | speed knots | gust knots | rain 1hr in | rain 24hr in | rain mn in | humidity % | barometer mb |
| 20260507190056 | 57 | 204 | 0.0 | 0.0 | 0.00 | 0.00 | 0.00 | 90 | 1044.2 |
| 20260507184548 | 58 | 204 | 0.0 | 1.7 | 0.00 | 0.00 | 0.00 | 90 | 1044.1 |
| 20260507183109 | 58 | 204 | 0.0 | 0.9 | 0.00 | 0.00 | 0.00 | 90 | 1044.1 |
| 20260507181545 | 58 | 204 | 0.0 | 1.7 | 0.00 | 0.00 | 0.00 | 90 | 1043.8 |
| 20260507180042 | 59 | 204 | 0.0 | 1.7 | 0.00 | 0.00 | 0.00 | 89 | 1043.5 |
| 20260507174542 | 59 | 204 | 0.0 | 2.6 | 0.00 | 0.00 | 0.00 | 89 | 1043.3 |
| 20260507173047 | 59 | 213 | 0.0 | 0.9 | 0.00 | 0.00 | 0.00 | 88 | 1043.2 |
| 20260507171540 | 59 | 213 | 0.0 | 0.0 | 0.00 | 0.00 | 0.00 | 87 | 1043.1 |
| 20260507170043 | 59 | 213 | 0.0 | 1.7 | 0.00 | 0.00 | 0.00 | 87 | 1043.1 |
| 20260507164555 | 60 | 212 | 0.0 | 3.5 | 0.00 | 0.00 | 0.00 | 85 | 1043.2 |
| 20260507163039 | 62 | 192 | 0.9 | 6.1 | 0.00 | 0.00 | 0.00 | 82 | 1043.3 |
| 20260507161550 | 63 | 44 | 0.9 | 3.5 | 0.00 | 0.00 | 0.00 | 80 | 1043.0 |
| 20260507160037 | 64 | 19 | 0.0 | 2.6 | 0.00 | 0.00 | 0.00 | 78 | 1042.6 |
| 20260507154537 | 64 | 329 | 1.7 | 2.6 | 0.00 | 0.00 | 0.00 | 78 | 1042.5 |
| 20260507153041 | 65 | 277 | 1.7 | 3.5 | 0.00 | 0.00 | 0.00 | 77 | 1042.5 |
| 20260507151537 | 66 | 293 | 0.9 | 4.3 | 0.00 | 0.00 | 0.00 | 75 | 1042.5 |
| 20260507150036 | 66 | 266 | 2.6 | 6.1 | 0.00 | 0.00 | 0.00 | 74 | 1042.3 |
| 20260507144537 | 66 | 286 | 0.9 | 4.3 | 0.00 | 0.00 | 0.00 | 75 | 1042.4 |
| 20260507143039 | 66 | 289 | 2.6 | 7.0 | 0.00 | 0.00 | 0.00 | 74 | 1042.3 |
| 20260507141534 | 66 | 319 | 2.6 | 7.8 | 0.00 | 0.00 | 0.00 | 73 | 1042.3 |
| 20260507140035 | 66 | 330 | 2.6 | 8.7 | 0.00 | 0.00 | 0.00 | 73 | 1042.3 |
| 20260507134531 | 66 | 342 | 2.6 | 8.7 | 0.00 | 0.00 | 0.00 | 73 | 1042.4 |
| 20260507133031 | 66 | 332 | 2.6 | 10.4 | 0.00 | 0.00 | 0.00 | 73 | 1042.4 |
| 20260507131529 | 67 | 309 | 2.6 | 11.3 | 0.00 | 0.00 | 0.00 | 71 | 1042.4 |
| 20260507130037 | 67 | 355 | 2.6 | 5.2 | 0.00 | 0.00 | 0.00 | 71 | 1042.6 |
| 20260507124536 | 67 | 327 | 3.5 | 11.3 | 0.00 | 0.00 | 0.00 | 71 | 1042.5 |
| 20260507123027 | 67 | 37 | 2.6 | 14.8 | 0.00 | 0.00 | 0.00 | 71 | 1042.6 |
| 20260507121526 | 67 | 28 | 2.6 | 11.3 | 0.00 | 0.00 | 0.00 | 69 | 1042.8 |
| 20260507120025 | 66 | 340 | 3.5 | 11.3 | 0.00 | 0.00 | 0.00 | 69 | 1042.9 |
| 20260507114537 | 67 | 333 | 4.3 | 9.6 | 0.00 | 0.00 | 0.00 | 70 | 1043.1 |
| 20260507113043 | 67 | 343 | 4.3 | 13.0 | 0.00 | 0.00 | 0.00 | 69 | 1043.3 |
| 20260507111530 | 67 | 327 | 4.3 | 9.6 | 0.00 | 0.00 | 0.00 | 65 | 1043.4 |
| 20260507110023 | 67 | 317 | 4.3 | 11.3 | 0.00 | 0.00 | 0.00 | 63 | 1043.4 |
| 20260507104522 | 68 | 9 | 2.6 | 11.3 | 0.00 | 0.00 | 0.00 | 60 | 1043.4 |
| 20260507103024 | 68 | 23 | 3.5 | 11.3 | 0.00 | 0.00 | 0.00 | 61 | 1043.2 |
| 20260507101520 | 68 | 299 | 4.3 | 10.4 | 0.00 | 0.00 | 0.00 | 57 | 1043.2 |
| 20260507100019 | 68 | 319 | 1.7 | 11.3 | 0.00 | 0.00 | 0.00 | 55 | 1043.2 |
| 20260507094518 | 69 | 345 | 2.6 | 8.7 | 0.00 | 0.00 | 0.00 | 52 | 1043.3 |
| 20260507093017 | 69 | 26 | 1.7 | 8.7 | 0.00 | 0.00 | 0.00 | 54 | 1043.4 |
| 20260507091514 | 69 | 67 | 2.6 | 7.8 | 0.00 | 0.00 | 0.00 | 52 | 1043.8 |
| 20260507090013 | 68 | 338 | 2.6 | 7.8 | 0.00 | 0.00 | 0.00 | 49 | 1043.8 |
| 20260507084510 | 68 | 345 | 1.7 | 8.7 | 0.00 | 0.00 | 0.00 | 50 | 1043.9 |
| 20260507083008 | 68 | 321 | 2.6 | 9.6 | 0.00 | 0.00 | 0.00 | 47 | 1043.9 |
| 20260507081507 | 68 | 19 | 4.3 | 9.6 | 0.00 | 0.00 | 0.00 | 46 | 1043.9 |
| 20260507074600 | 68 | 38 | 3.5 | 9.6 | 0.00 | 0.00 | 0.00 | 45 | 1043.7 |
| 20260507073054 | 68 | 355 | 1.7 | 7.8 | 0.00 | 0.00 | 0.00 | 44 | 1043.7 |
| 20260507071547 | 68 | 24 | 3.5 | 7.8 | 0.00 | 0.00 | 0.00 | 46 | 1043.5 |
| 20260507070046 | 67 | 22 | 1.7 | 8.7 | 0.00 | 0.00 | 0.00 | 45 | 1043.7 |
| 20260507064540 | 67 | 26 | 2.6 | 7.0 | 0.00 | 0.00 | 0.00 | 47 | 1043.6 |
| 20260507063040 | 66 | 19 | 0.9 | 7.0 | 0.00 | 0.00 | 0.00 | 46 | 1043.5 |
| 20260507061530 | 66 | 5 | 0.9 | 4.3 | 0.00 | 0.00 | 0.00 | 47 | 1043.4 |
| 20260507060030 | 66 | 33 | 1.7 | 3.5 | 0.00 | 0.00 | 0.00 | 55 | 1043.4 |
| 20260507054522 | 65 | 134 | 0.0 | 1.7 | 0.00 | 0.00 | 0.00 | 59 | 1043.4 |
| 20260507053018 | 63 | 67 | 0.0 | 0.0 | 0.00 | 0.00 | 0.00 | 65 | 1043.4 |
| 20260507051513 | 62 | 67 | 0.9 | 1.7 | 0.00 | 0.00 | 0.00 | 68 | 1043.3 |
| 20260507050013 | 59 | 69 | 0.0 | 0.9 | 0.00 | 0.00 | 0.00 | 74 | 1043.1 |
| 20260507044505 | 56 | 69 | 0.0 | 1.7 | 0.00 | 0.00 | 0.00 | 79 | 1043.0 |
| 20260507043127 | 55 | 157 | 0.0 | 1.7 | 0.00 | 0.00 | 0.00 | 81 | 1043.2 |
| 20260507041559 | 52 | 197 | 0.0 | 0.0 | 0.00 | 0.00 | 0.00 | 82 | 1043.2 |
| 20260507040153 | 50 | 197 | 0.0 | 0.9 | 0.00 | 0.00 | 0.00 | 81 | 1043.0 |
| 20260507034546 | 49 | 197 | 0.0 | 3.5 | 0.00 | 0.00 | 0.00 | 81 | 1042.9 |
| 20260507033042 | 47 | 196 | 2.6 | 4.3 | 0.00 | 0.00 | 0.00 | 82 | 1042.8 |
| 20260507031544 | 46 | 188 | 2.6 | 4.3 | 0.00 | 0.00 | 0.00 | 83 | 1042.7 |
| 20260507030036 | 46 | 186 | 2.6 | 4.3 | 0.00 | 0.00 | 0.00 | 84 | 1042.7 |
| 20260507024535 | 46 | 194 | 2.6 | 4.3 | 0.00 | 0.00 | 0.00 | 84 | 1042.5 |
| 20260507023035 | 46 | 185 | 0.9 | 2.6 | 0.00 | 0.00 | 0.00 | 83 | 1042.4 |
| 20260507021537 | 47 | 189 | 1.7 | 4.3 | 0.00 | 0.00 | 0.00 | 82 | 1042.4 |
| 20260507020046 | 46 | 186 | 1.7 | 3.5 | 0.00 | 0.00 | 0.00 | 84 | 1042.4 |
| 20260507014534 | 46 | 180 | 0.9 | 4.3 | 0.00 | 0.00 | 0.00 | 84 | 1042.3 |
| 20260507013031 | 47 | 160 | 0.0 | 5.2 | 0.00 | 0.00 | 0.00 | 84 | 1042.2 |
| 20260507011541 | 47 | 192 | 1.7 | 3.5 | 0.00 | 0.00 | 0.00 | 84 | 1042.2 |
| 20260507010033 | 47 | 200 | 2.6 | 3.5 | 0.00 | 0.00 | 0.00 | 83 | 1042.1 |
| 20260507004528 | 48 | 190 | 1.7 | 4.3 | 0.00 | 0.00 | 0.00 | 84 | 1042.2 |
| 20260507003026 | 47 | 194 | 2.6 | 4.3 | 0.00 | 0.00 | 0.00 | 87 | 1042.1 |
| 20260507001550 | 47 | 188 | 1.7 | 3.5 | 0.00 | 0.00 | 0.00 | 87 | 1042.2 |
| 20260507000024 | 48 | 199 | 1.7 | 4.3 | 0.00 | 0.00 | 0.00 | 88 | 1042.2 |
| 20260506234520 | 48 | 190 | 1.7 | 3.5 | 0.00 | 0.00 | 0.00 | 88 | 1042.3 |
| 20260506233019 | 48 | 190 | 2.6 | 3.5 | 0.00 | 0.00 | 0.00 | 88 | 1042.3 |
| 20260506231518 | 48 | 188 | 1.7 | 3.5 | 0.00 | 0.00 | 0.00 | 88 | 1042.4 |
| 20260506230017 | 48 | 194 | 0.9 | 4.3 | 0.00 | 0.00 | 0.00 | 88 | 1042.4 |
| 20260506224516 | 48 | 192 | 1.7 | 3.5 | 0.00 | 0.00 | 0.00 | 89 | 1042.4 |
| 20260506223013 | 48 | 186 | 0.0 | 2.6 | 0.00 | 0.00 | 0.00 | 88 | 1042.6 |
| 20260506221512 | 48 | 182 | 0.9 | 3.5 | 0.00 | 0.00 | 0.00 | 88 | 1042.5 |
| 20260506220009 | 48 | 180 | 0.9 | 2.6 | 0.00 | 0.00 | 0.00 | 88 | 1042.7 |
| 20260506214507 | 48 | 180 | 0.9 | 2.6 | 0.00 | 0.00 | 0.00 | 88 | 1042.9 |
| 20260506213004 | 49 | 184 | 0.9 | 4.3 | 0.00 | 0.00 | 0.00 | 88 | 1042.9 |
| 20260506211559 | 49 | 183 | 1.7 | 3.5 | 0.00 | 0.00 | 0.00 | 88 | 1042.7 |
| 20260506210155 | 49 | 182 | 1.7 | 3.5 | 0.00 | 0.00 | 0.00 | 88 | 1042.8 |
| 20260506204557 | 49 | 181 | 0.9 | 2.6 | 0.00 | 0.00 | 0.00 | 87 | 1042.8 |
| 20260506203116 | 49 | 181 | 0.0 | 2.6 | 0.00 | 0.00 | 0.00 | 86 | 1042.8 |
| 20260506201552 | 49 | 180 | 0.0 | 1.7 | 0.00 | 0.00 | 0.00 | 84 | 1042.8 |
| 20260506200056 | 50 | 185 | 0.9 | 3.5 | 0.00 | 0.00 | 0.00 | 84 | 1042.8 |
| 20260506194553 | 50 | 191 | 1.7 | 4.3 | 0.00 | 0.00 | 0.00 | 83 | 1042.8 |
| 20260506193054 | 50 | 192 | 1.7 | 3.5 | 0.00 | 0.00 | 0.00 | 83 | 1042.7 |
| 20260506191549 | 50 | 178 | 2.6 | 4.3 | 0.00 | 0.00 | 0.00 | 83 | 1042.6 |